Time;durP1;ratioP1;P1;durP2;ratioP2;P2;SDS_P1;SDS_P2;PMS_P1;PMS_P2;Temp;Humidity;BMP_temperature;BMP_pressure;BME280_temperature;BME280_humidity;BME280_pressure;Samples;Min_cycle;Max_cycle;Signal;HPM_P1;HPM_P2
2023/03/09 00:01:25;;;;;;;7.45;5.15;;;8.10;63.90;;;;;;5007159;28;114499;-80
2023/03/09 00:03:52;;;;;;;8.27;5.38;;;8.10;64.10;;;;;;4989018;28;115109;-80
2023/03/09 00:06:20;;;;;;;10.10;5.78;;;8.10;64.10;;;;;;5006241;28;114713;-80
2023/03/09 00:08:47;;;;;;;8.68;5.47;;;8.10;64.00;;;;;;4989893;28;114686;-80
2023/03/09 00:11:15;;;;;;;8.82;5.50;;;8.00;64.10;;;;;;5006929;28;114410;-80
2023/03/09 00:13:43;;;;;;;8.48;5.70;;;8.10;64.00;;;;;;4989647;28;117879;-80
2023/03/09 00:16:24;;;;;;;8.20;5.43;;;8.10;64.00;;;;;;4989981;28;114606;-80
2023/03/09 00:18:53;;;;;;;9.70;5.15;;;8.10;64.00;;;;;;4990765;28;114351;-80
2023/03/09 00:21:36;;;;;;;12.82;8.15;;;8.00;63.80;;;;;;5007817;28;114528;-80
2023/03/09 00:24:09;;;;;;;14.10;9.70;;;8.10;63.90;;;;;;4994748;28;115955;-80
2023/03/09 00:26:39;;;;;;;17.80;11.55;;;8.00;64.30;;;;;;4989849;28;114777;-80
2023/03/09 00:29:08;;;;;;;18.63;11.75;;;7.90;64.30;;;;;;4975580;28;114355;-80
2023/03/09 00:31:35;;;;;;;16.17;11.90;;;7.90;64.60;;;;;;4991330;28;114473;-80
2023/03/09 00:34:03;;;;;;;18.02;11.60;;;7.80;64.50;;;;;;4990551;28;115412;-80
2023/03/09 00:36:31;;;;;;;17.65;12.13;;;7.80;64.60;;;;;;4958455;28;117480;-80
2023/03/09 00:38:58;;;;;;;16.27;12.13;;;7.80;64.70;;;;;;5025731;28;114425;-80
2023/03/09 00:41:28;;;;;;;18.88;12.27;;;7.80;64.80;;;;;;5007478;28;114665;-80
2023/03/09 00:43:55;;;;;;;19.65;13.40;;;7.80;64.90;;;;;;4973959;28;115130;-80
2023/03/09 00:46:22;;;;;;;17.83;12.95;;;7.80;65.00;;;;;;5024745;28;114637;-80
2023/03/09 00:48:49;;;;;;;19.33;13.20;;;7.70;65.10;;;;;;5025257;28;114338;-80
2023/03/09 00:51:17;;;;;;;18.50;13.70;;;7.70;65.30;;;;;;5001703;28;115282;-80
2023/03/09 00:53:44;;;;;;;20.00;13.32;;;7.70;65.30;;;;;;5006936;28;115027;-80
2023/03/09 00:56:20;;;;;;;19.33;13.25;;;7.70;65.30;;;;;;5006436;28;114590;-80
2023/03/09 00:58:47;;;;;;;18.52;12.35;;;7.80;65.50;;;;;;4990884;27;114821;-80
2023/03/09 01:01:15;;;;;;;17.30;11.82;;;7.80;65.20;;;;;;5024774;28;114359;-80
2023/03/09 01:03:43;;;;;;;16.17;9.75;;;7.80;65.30;;;;;;4973477;28;116205;-80
2023/03/09 01:06:13;;;;;;;12.43;8.73;;;7.80;65.20;;;;;;4989921;28;115076;-80
2023/03/09 01:08:40;;;;;;;11.80;8.40;;;7.90;65.20;;;;;;4990527;28;114181;-80
2023/03/09 01:11:09;;;;;;;12.57;6.65;;;7.90;65.10;;;;;;5007141;28;114536;-81
2023/03/09 01:13:36;;;;;;;8.98;5.82;;;8.00;65.00;;;;;;5006741;28;116404;-80
2023/03/09 01:16:04;;;;;;;8.55;5.22;;;8.00;64.80;;;;;;5006457;28;114682;-80
2023/03/09 01:18:31;;;;;;;7.72;5.43;;;8.10;64.70;;;;;;4973902;28;114439;-80
2023/03/09 01:20:59;;;;;;;7.55;5.43;;;8.10;64.50;;;;;;4958009;28;114888;-80
2023/03/09 01:23:26;;;;;;;7.72;5.10;;;8.20;64.40;;;;;;5006419;28;115210;-80
2023/03/09 01:25:54;;;;;;;7.25;5.07;;;8.20;64.30;;;;;;4987359;28;116248;-80
2023/03/09 01:28:22;;;;;;;8.73;5.13;;;8.20;64.20;;;;;;4990073;28;114249;-80
2023/03/09 01:30:50;;;;;;;6.68;4.90;;;8.20;64.20;;;;;;5007033;28;114324;-80
2023/03/09 01:33:17;;;;;;;7.18;4.70;;;8.30;64.40;;;;;;5005746;28;115321;-80
2023/03/09 01:35:45;;;;;;;6.85;4.88;;;8.40;64.50;;;;;;5006120;28;114553;-80
2023/03/09 01:38:12;;;;;;;5.88;4.35;;;8.40;64.80;;;;;;5019133;28;114409;-80
2023/03/09 01:40:40;;;;;;;7.95;4.78;;;8.40;65.00;;;;;;5006884;28;114428;-80
2023/03/09 01:43:41;;;;;;;6.63;4.68;;;8.50;65.40;;;;;;4972855;28;116622;-79
2023/03/09 01:46:47;;;;;;;7.55;5.18;;;8.50;65.60;;;;;;5006101;28;114744;-80
2023/03/09 01:49:40;;;;;;;6.80;5.07;;;8.50;65.90;;;;;;4978357;28;114955;-80
2023/03/09 01:52:14;;;;;;;7.05;4.68;;;8.40;66.60;;;;;;4995787;28;114570;-80
2023/03/09 01:54:58;;;;;;;6.25;4.25;;;8.40;66.60;;;;;;4974050;28;115183;-78
2023/03/09 01:57:45;;;;;;;6.90;4.78;;;8.40;66.90;;;;;;4973425;28;114647;-78
2023/03/09 02:00:21;;;;;;;6.75;4.40;;;8.40;67.00;;;;;;4991831;28;114527;-78
2023/03/09 02:03:11;;;;;;;5.15;3.97;;;8.30;66.90;;;;;;5005750;28;114536;-78
2023/03/09 02:05:45;;;;;;;6.40;4.03;;;8.40;67.10;;;;;;4973230;28;115491;-79
2023/03/09 02:08:16;;;;;;;7.82;4.40;;;8.40;67.10;;;;;;4973215;28;114671;-79
2023/03/09 02:10:57;;;;;;;6.88;4.40;;;8.40;67.00;;;;;;4973262;28;114457;-79
2023/03/09 02:13:29;;;;;;;6.28;3.88;;;8.50;67.10;;;;;;4973783;28;114541;-79
2023/03/09 02:15:57;;;;;;;6.97;3.67;;;8.40;67.00;;;;;;5005806;28;115133;-79
2023/03/09 02:18:24;;;;;;;6.40;3.83;;;8.40;66.90;;;;;;5005865;28;114650;-79
2023/03/09 02:21:23;;;;;;;6.53;3.92;;;8.40;67.10;;;;;;4989854;28;114444;-79
2023/03/09 02:24:07;;;;;;;6.03;4.35;;;8.50;67.30;;;;;;5006041;28;114829;-78
2023/03/09 02:26:48;;;;;;;6.00;4.25;;;8.40;67.60;;;;;;4957885;28;114950;-79
2023/03/09 02:29:16;;;;;;;5.03;3.92;;;8.40;67.60;;;;;;4974001;28;114589;-78
2023/03/09 02:31:43;;;;;;;5.88;4.47;;;8.30;67.70;;;;;;4989411;28;114466;-79
2023/03/09 02:34:11;;;;;;;6.40;4.55;;;8.30;68.10;;;;;;5023782;28;114705;-79
2023/03/09 02:36:40;;;;;;;6.68;4.57;;;8.20;68.60;;;;;;5005162;28;115020;-78
2023/03/09 02:39:43;;;;;;;6.05;4.00;;;8.20;68.70;;;;;;4988778;28;114885;-78
2023/03/09 02:42:11;;;;;;;6.10;4.05;;;8.20;68.90;;;;;;4977852;28;114770;-78
2023/03/09 02:44:39;;;;;;;6.47;3.80;;;8.20;69.00;;;;;;5023974;28;114358;-79
2023/03/09 02:47:08;;;;;;;5.30;3.33;;;8.10;69.20;;;;;;5004313;28;116599;-78
2023/03/09 02:49:37;;;;;;;5.53;3.35;;;8.20;69.30;;;;;;5022889;28;114584;-79
2023/03/09 02:52:05;;;;;;;7.35;3.28;;;8.10;69.40;;;;;;4972289;28;114777;-79
2023/03/09 02:54:32;;;;;;;4.60;2.40;;;8.10;69.30;;;;;;5005578;28;114354;-79
2023/03/09 02:57:00;;;;;;;3.78;2.40;;;8.10;69.30;;;;;;5004852;28;115302;-79
2023/03/09 02:59:27;;;;;;;3.40;1.90;;;8.10;69.10;;;;;;4986811;28;117446;-79
2023/03/09 03:01:54;;;;;;;4.03;2.03;;;8.10;69.20;;;;;;5022616;28;114768;-79
2023/03/09 03:04:21;;;;;;;3.45;2.25;;;8.10;69.20;;;;;;5023484;28;114450;-79
2023/03/09 03:06:51;;;;;;;4.38;2.17;;;8.10;69.20;;;;;;4988246;28;115085;-79
2023/03/09 03:09:19;;;;;;;3.47;1.92;;;8.10;69.20;;;;;;5004762;28;115110;-79
2023/03/09 03:11:46;;;;;;;2.72;1.70;;;8.00;69.00;;;;;;4988849;28;114444;-79
2023/03/09 03:14:14;;;;;;;3.20;1.90;;;8.10;69.00;;;;;;5005352;28;114255;-79
2023/03/09 03:16:42;;;;;;;4.30;1.90;;;8.10;68.90;;;;;;4971408;28;115004;-79
2023/03/09 03:19:09;;;;;;;3.45;2.17;;;8.10;68.90;;;;;;5022248;28;114863;-79
2023/03/09 03:21:38;;;;;;;7.25;4.85;;;8.10;69.00;;;;;;4989024;28;114505;-79
2023/03/09 03:24:06;;;;;;;44.63;8.32;;;8.10;69.20;;;;;;4988223;28;114488;-79
2023/03/09 03:26:35;;;;;;;11.98;8.32;;;7.90;69.40;;;;;;4988037;28;116877;-79
2023/03/09 03:29:07;;;;;;;21.52;10.60;;;7.80;69.70;;;;;;5005139;28;115479;-80
2023/03/09 03:31:35;;;;;;;18.52;11.57;;;7.70;70.00;;;;;;5005557;28;114316;-79
2023/03/09 03:34:02;;;;;;;17.17;11.20;;;7.60;70.40;;;;;;4988157;28;114466;-79
2023/03/09 03:36:35;;;;;;;16.92;11.75;;;7.60;70.60;;;;;;5004231;28;115088;-79
2023/03/09 03:39:03;;;;;;;21.75;11.98;;;7.50;70.60;;;;;;4971470;28;114633;-79
2023/03/09 03:41:31;;;;;;;28.10;12.43;;;7.50;70.70;;;;;;4971567;28;114510;-79
2023/03/09 03:44:02;;;;;;;28.70;12.25;;;7.60;70.80;;;;;;4957432;28;114230;-79
2023/03/09 03:46:30;;;;;;;30.52;13.93;;;7.50;70.80;;;;;;4987135;28;115398;-79
2023/03/09 03:48:57;;;;;;;29.73;14.27;;;7.60;70.80;;;;;;4987458;28;114797;-79
2023/03/09 03:51:26;;;;;;;28.45;14.88;;;7.60;70.80;;;;;;5004706;28;114551;-79
2023/03/09 03:53:55;;;;;;;27.75;15.68;;;7.60;70.80;;;;;;4988513;28;114316;-80
2023/03/09 03:56:23;;;;;;;23.08;15.18;;;7.60;70.80;;;;;;4987079;28;118085;-80
2023/03/09 03:58:52;;;;;;;20.52;14.02;;;7.60;70.70;;;;;;5004413;28;114607;-79
2023/03/09 04:01:20;;;;;;;14.88;11.80;;;7.60;70.60;;;;;;4987784;28;114640;-79
2023/03/09 04:03:57;;;;;;;20.85;12.43;;;7.70;70.50;;;;;;5021336;28;114377;-79
2023/03/09 04:06:24;;;;;;;14.18;10.95;;;7.70;70.40;;;;;;5002947;28;117144;-79
2023/03/09 04:08:52;;;;;;;17.85;10.68;;;7.70;70.30;;;;;;5016244;28;114641;-78
2023/03/09 04:11:19;;;;;;;15.48;10.55;;;7.70;70.20;;;;;;5004872;28;114469;-78
2023/03/09 04:13:50;;;;;;;16.65;11.88;;;7.80;70.20;;;;;;4988407;28;114649;-78
2023/03/09 04:16:19;;;;;;;16.52;11.52;;;7.80;70.10;;;;;;4987640;28;115158;-78
2023/03/09 04:18:47;;;;;;;17.42;12.02;;;7.80;70.00;;;;;;4987390;28;115312;-79
2023/03/09 04:21:17;;;;;;;17.60;11.63;;;7.80;70.00;;;;;;5004130;28;114640;-78
2023/03/09 04:23:48;;;;;;;15.02;10.93;;;7.90;70.00;;;;;;4987871;28;114571;-78
2023/03/09 04:26:16;;;;;;;14.40;10.63;;;7.90;70.00;;;;;;4971062;28;115187;-78
2023/03/09 04:29:00;;;;;;;15.63;10.52;;;7.90;69.90;;;;;;4975192;28;115149;-79
2023/03/09 04:31:28;;;;;;;13.10;10.88;;;7.90;69.70;;;;;;4987422;28;114319;-79
2023/03/09 04:33:56;;;;;;;15.90;10.57;;;7.90;69.80;;;;;;5004139;28;114453;-78
2023/03/09 04:36:23;;;;;;;16.98;11.00;;;7.90;69.80;;;;;;5024438;28;115651;-79
2023/03/09 04:38:51;;;;;;;17.05;11.50;;;7.90;69.70;;;;;;5006681;28;114817;-78
2023/03/09 04:41:20;;;;;;;15.70;10.85;;;8.00;69.70;;;;;;5007736;28;114512;-79
2023/03/09 04:43:51;;;;;;;14.93;10.85;;;7.90;69.70;;;;;;5007630;28;114743;-78
2023/03/09 04:46:19;;;;;;;14.32;10.23;;;7.90;69.60;;;;;;5006778;28;115592;-79
2023/03/09 04:48:49;;;;;;;13.57;8.90;;;7.90;69.60;;;;;;4974059;28;116161;-79
2023/03/09 04:51:16;;;;;;;13.88;9.68;;;8.00;69.50;;;;;;4974156;28;114584;-79
2023/03/09 04:53:45;;;;;;;19.33;13.43;;;7.90;69.50;;;;;;4991301;28;114343;-79
2023/03/09 04:56:13;;;;;;;20.42;11.77;;;8.00;69.50;;;;;;4973069;28;117489;-79
2023/03/09 04:58:47;;;;;;;16.25;9.30;;;8.00;69.50;;;;;;5006553;28;114752;-79
2023/03/09 05:01:14;;;;;;;13.13;7.78;;;8.00;69.20;;;;;;4970885;28;114628;-79
2023/03/09 05:03:42;;;;;;;7.95;5.25;;;8.00;69.20;;;;;;4987098;28;114527;-79
2023/03/09 05:06:10;;;;;;;8.07;5.10;;;8.00;69.00;;;;;;4986640;28;115060;-80
2023/03/09 05:08:38;;;;;;;6.03;4.32;;;8.00;68.90;;;;;;5003179;28;115281;-79
2023/03/09 05:11:07;;;;;;;6.47;4.40;;;8.10;68.70;;;;;;5003959;28;114630;-80
2023/03/09 05:13:35;;;;;;;13.07;6.70;;;8.10;68.50;;;;;;4987330;28;114287;-79
2023/03/09 05:16:09;;;;;;;15.00;7.07;;;8.10;68.40;;;;;;5002805;28;118076;-80
2023/03/09 05:18:41;;;;;;;9.80;5.78;;;8.20;68.30;;;;;;5002590;28;115815;-79
2023/03/09 05:21:09;;;;;;;8.55;4.85;;;8.20;68.20;;;;;;5003208;28;114364;-79
2023/03/09 05:23:38;;;;;;;8.75;5.03;;;8.20;68.20;;;;;;4986834;28;114505;-80
2023/03/09 05:26:07;;;;;;;10.43;7.20;;;8.20;68.10;;;;;;5002824;28;115117;-80
2023/03/09 05:28:38;;;;;;;9.23;6.20;;;8.20;68.20;;;;;;4986869;28;114683;-79
2023/03/09 05:31:13;;;;;;;9.68;6.53;;;8.20;68.20;;;;;;4987014;28;114532;-79
2023/03/09 05:33:43;;;;;;;9.50;6.78;;;8.20;68.20;;;;;;4987182;28;114488;-79
2023/03/09 05:36:20;;;;;;;10.93;7.72;;;8.20;68.10;;;;;;5002985;28;116571;-80
2023/03/09 05:38:49;;;;;;;12.35;7.10;;;8.20;68.20;;;;;;4953508;28;116700;-79
2023/03/09 05:41:16;;;;;;;13.93;7.65;;;8.20;68.20;;;;;;4970478;28;114836;-79
2023/03/09 05:43:45;;;;;;;10.18;8.00;;;8.20;68.10;;;;;;4987092;28;114420;-79
2023/03/09 05:46:14;;;;;;;11.65;7.15;;;8.20;68.20;;;;;;5001708;28;115015;-80
2023/03/09 05:48:43;;;;;;;9.27;6.32;;;8.20;68.30;;;;;;5002332;28;114696;-80
2023/03/09 05:51:10;;;;;;;9.55;6.65;;;8.20;68.40;;;;;;5004264;28;114312;-80
2023/03/09 05:53:38;;;;;;;13.85;9.48;;;8.20;68.40;;;;;;4986608;28;114698;-80
2023/03/09 05:56:06;;;;;;;14.57;9.07;;;8.20;68.50;;;;;;5002011;28;115132;-80
2023/03/09 05:58:38;;;;;;;14.93;9.43;;;8.20;68.60;;;;;;5003411;28;114565;-80
2023/03/09 06:01:20;;;;;;;13.43;9.88;;;8.20;68.80;;;;;;5002517;28;114538;-80
2023/03/09 06:03:49;;;;;;;18.00;11.20;;;8.20;68.90;;;;;;4972088;28;114518;-79
2023/03/09 06:06:16;;;;;;;16.83;11.13;;;8.20;68.80;;;;;;4985267;28;115130;-80
2023/03/09 06:08:44;;;;;;;18.00;11.93;;;8.20;68.80;;;;;;4968917;28;114768;-79
2023/03/09 06:11:14;;;;;;;18.33;10.98;;;8.20;68.80;;;;;;4969781;28;114392;-79
2023/03/09 06:13:42;;;;;;;18.02;10.80;;;8.20;68.80;;;;;;4969862;28;114549;-80
2023/03/09 06:16:15;;;;;;;16.30;9.80;;;8.20;68.90;;;;;;4968963;28;115612;-80
2023/03/09 06:18:43;;;;;;;13.73;8.70;;;8.20;68.80;;;;;;4985611;28;114308;-79
2023/03/09 06:21:12;;;;;;;10.20;7.30;;;8.20;68.70;;;;;;5002419;28;114316;-79
2023/03/09 06:23:39;;;;;;;11.57;7.93;;;8.20;68.70;;;;;;4985544;28;114472;-80
2023/03/09 06:26:11;;;;;;;10.93;7.07;;;8.20;68.60;;;;;;5001382;28;116649;-80
2023/03/09 06:28:45;;;;;;;10.50;6.50;;;8.10;68.60;;;;;;4985735;28;114599;-80
2023/03/09 06:31:13;;;;;;;8.90;6.70;;;8.10;68.50;;;;;;4969728;28;114982;-80
2023/03/09 06:33:45;;;;;;;10.25;7.40;;;8.10;68.60;;;;;;4985445;28;114558;-80
2023/03/09 06:36:15;;;;;;;11.18;7.43;;;8.10;68.60;;;;;;4967077;28;115366;-80
2023/03/09 06:38:44;;;;;;;11.07;7.82;;;8.10;68.70;;;;;;5001634;28;114763;-80
2023/03/09 06:41:14;;;;;;;11.45;7.88;;;8.10;68.80;;;;;;4985814;28;114726;-80
2023/03/09 06:43:45;;;;;;;12.30;8.70;;;8.10;69.00;;;;;;5002142;28;114912;-79
2023/03/09 06:46:12;;;;;;;19.67;13.85;;;8.10;69.40;;;;;;4984836;28;115335;-80
2023/03/09 06:48:40;;;;;;;21.80;14.40;;;8.10;69.80;;;;;;4984587;28;116966;-79
2023/03/09 06:51:07;;;;;;;20.15;15.57;;;8.10;70.00;;;;;;5003153;28;114730;-80
2023/03/09 06:53:34;;;;;;;20.08;14.27;;;8.00;70.40;;;;;;5002344;28;114531;-80
2023/03/09 06:56:07;;;;;;;19.75;14.25;;;8.00;70.50;;;;;;5001270;28;115111;-78
2023/03/09 06:58:34;;;;;;;18.48;13.68;;;8.00;70.70;;;;;;4984268;28;115114;-79
2023/03/09 07:01:09;;;;;;;20.45;13.40;;;7.90;71.00;;;;;;5001023;28;114556;-79
2023/03/09 07:03:37;;;;;;;17.63;11.98;;;7.90;71.40;;;;;;4985821;28;114654;-80
2023/03/09 07:06:06;;;;;;;15.57;10.82;;;7.90;71.40;;;;;;4951361;28;117589;-79
2023/03/09 07:08:35;;;;;;;17.60;11.75;;;7.90;71.80;;;;;;5001500;28;114660;-80
2023/03/09 07:11:03;;;;;;;12.15;9.38;;;7.80;71.90;;;;;;5000180;28;115575;-80
2023/03/09 07:13:32;;;;;;;10.27;8.40;;;7.80;72.10;;;;;;5001603;28;114710;-80
2023/03/09 07:16:03;;;;;;;10.70;8.38;;;7.70;72.50;;;;;;4984675;28;115188;-79
2023/03/09 07:18:33;;;;;;;8.35;7.38;;;7.60;73.00;;;;;;5001398;28;115132;-79
2023/03/09 07:21:02;;;;;;;9.77;8.18;;;7.60;72.80;;;;;;5003036;28;114331;-80
2023/03/09 07:23:31;;;;;;;12.20;8.95;;;7.60;73.00;;;;;;4968948;28;114622;-80
2023/03/09 07:26:02;;;;;;;11.70;9.15;;;7.70;73.20;;;;;;5000006;28;116800;-80
2023/03/09 07:28:30;;;;;;;12.38;10.57;;;7.70;73.30;;;;;;5000679;28;114697;-80
2023/03/09 07:30:57;;;;;;;13.30;10.48;;;7.70;73.40;;;;;;5001583;28;114476;-80
2023/03/09 07:33:25;;;;;;;13.48;10.55;;;7.70;73.30;;;;;;5001385;28;114793;-79
2023/03/09 07:35:52;;;;;;;13.35;10.57;;;7.70;73.40;;;;;;5000533;28;115179;-80
2023/03/09 07:38:19;;;;;;;15.75;11.65;;;7.70;73.50;;;;;;5000667;28;115083;-80
2023/03/09 07:40:46;;;;;;;16.23;11.40;;;7.70;73.60;;;;;;5001221;28;114934;-79
2023/03/09 07:43:14;;;;;;;13.82;11.20;;;7.80;73.60;;;;;;5001560;28;114607;-79
2023/03/09 07:45:53;;;;;;;12.93;11.48;;;7.90;73.80;;;;;;5000645;28;115169;-80
2023/03/09 07:48:20;;;;;;;14.07;12.05;;;7.90;73.80;;;;;;5000481;28;114652;-79
2023/03/09 07:50:56;;;;;;;13.88;11.90;;;7.90;74.00;;;;;;5001936;28;114387;-79
2023/03/09 07:53:23;;;;;;;13.82;10.95;;;7.90;74.10;;;;;;4985850;28;114616;-78
2023/03/09 07:55:57;;;;;;;18.92;12.73;;;8.00;73.90;;;;;;5000297;28;115878;-78
2023/03/09 07:58:24;;;;;;;16.27;12.10;;;8.00;74.40;;;;;;5001268;28;116059;-79
2023/03/09 08:00:52;;;;;;;14.65;11.63;;;8.00;74.30;;;;;;4984156;28;114365;-78
2023/03/09 08:03:19;;;;;;;14.15;11.32;;;8.00;74.50;;;;;;5002086;28;114590;-80
2023/03/09 08:05:47;;;;;;;14.23;11.20;;;8.00;74.50;;;;;;4967416;28;116108;-79
2023/03/09 08:08:14;;;;;;;14.90;11.55;;;8.10;74.60;;;;;;5001170;28;115153;-80
2023/03/09 08:10:49;;;;;;;14.25;11.88;;;8.00;74.50;;;;;;5003534;28;114637;-79
2023/03/09 08:13:16;;;;;;;12.02;9.10;;;8.10;74.80;;;;;;5004514;28;114548;-79
2023/03/09 08:15:44;;;;;;;15.32;9.25;;;8.00;74.40;;;;;;5003134;28;115133;-79
2023/03/09 08:18:11;;;;;;;10.98;8.00;;;8.00;74.50;;;;;;5005008;28;115042;-79
2023/03/09 08:20:39;;;;;;;10.98;7.60;;;8.00;74.40;;;;;;5005642;28;114385;-79
2023/03/09 08:23:06;;;;;;;10.20;7.72;;;8.00;74.40;;;;;;5004358;28;114485;-80
2023/03/09 08:25:34;;;;;;;9.52;7.10;;;8.10;74.40;;;;;;5004733;28;115138;-78
2023/03/09 08:28:01;;;;;;;9.80;7.45;;;8.00;74.20;;;;;;5004752;28;114665;-79
2023/03/09 08:30:29;;;;;;;13.70;8.30;;;8.00;74.30;;;;;;4987766;28;114421;-80
2023/03/09 08:32:56;;;;;;;9.98;6.82;;;8.00;74.30;;;;;;5005697;28;114908;-79
2023/03/09 08:35:28;;;;;;;9.85;6.35;;;8.00;74.20;;;;;;5004685;28;115093;-78
2023/03/09 08:37:55;;;;;;;8.77;6.32;;;8.10;74.20;;;;;;5003341;28;115990;-79
2023/03/09 08:40:22;;;;;;;7.28;5.65;;;8.00;74.20;;;;;;5003515;28;114443;-78
2023/03/09 08:42:50;;;;;;;13.60;6.63;;;8.10;74.30;;;;;;5004982;28;114524;-78
2023/03/09 08:45:17;;;;;;;11.48;7.50;;;8.10;74.30;;;;;;5004447;28;115611;-80
2023/03/09 08:47:44;;;;;;;9.63;5.53;;;8.10;74.40;;;;;;4986739;28;115274;-79
2023/03/09 08:50:12;;;;;;;14.45;7.85;;;8.20;74.30;;;;;;4987367;28;114591;-78
2023/03/09 08:52:41;;;;;;;8.85;5.70;;;8.30;74.10;;;;;;5005174;28;114485;-79
2023/03/09 08:55:09;;;;;;;7.13;5.88;;;8.30;74.10;;;;;;4986954;28;115052;-78
2023/03/09 08:57:37;;;;;;;10.23;6.20;;;8.40;74.20;;;;;;5003096;28;115317;-80
2023/03/09 09:00:08;;;;;;;7.90;6.00;;;8.50;74.30;;;;;;4988776;28;114429;-79
2023/03/09 09:02:36;;;;;;;10.82;5.53;;;8.50;74.20;;;;;;5025047;28;114407;-80
2023/03/09 09:05:04;;;;;;;6.55;4.13;;;8.60;74.20;;;;;;5023941;28;115049;-80
2023/03/09 09:07:32;;;;;;;4.47;2.63;;;8.60;73.90;;;;;;5023736;28;114624;-80
2023/03/09 09:09:59;;;;;;;3.92;2.00;;;8.70;73.50;;;;;;5006684;28;114365;-79
2023/03/09 09:12:27;;;;;;;3.72;1.70;;;8.70;73.10;;;;;;5024794;28;115331;-79
2023/03/09 09:14:55;;;;;;;5.03;1.80;;;8.80;72.30;;;;;;4989716;28;115183;-80
2023/03/09 09:17:22;;;;;;;4.43;2.25;;;8.90;71.60;;;;;;5006250;28;114709;-80
2023/03/09 09:19:51;;;;;;;3.58;1.35;;;9.00;71.00;;;;;;5024735;27;114621;-79
2023/03/09 09:22:18;;;;;;;3.35;2.05;;;9.10;70.60;;;;;;5001412;28;115933;-78
2023/03/09 09:24:46;;;;;;;4.50;1.90;;;9.20;70.10;;;;;;4988874;28;116631;-80
2023/03/09 09:27:13;;;;;;;3.88;1.60;;;9.20;69.80;;;;;;5005955;28;117177;-80
2023/03/09 09:29:40;;;;;;;3.45;1.75;;;9.30;69.30;;;;;;5005812;28;114613;-79
2023/03/09 09:32:08;;;;;;;3.97;1.85;;;9.40;69.30;;;;;;5024510;28;114481;-79
2023/03/09 09:34:36;;;;;;;2.40;1.55;;;9.50;69.00;;;;;;5006067;28;115171;-81
2023/03/09 09:37:05;;;;;;;3.80;1.80;;;9.50;68.50;;;;;;5023046;28;115050;-80
2023/03/09 09:39:35;;;;;;;4.13;2.13;;;9.60;68.60;;;;;;4990119;28;114622;-81
2023/03/09 09:42:06;;;;;;;3.60;1.80;;;9.60;68.70;;;;;;5024369;28;114893;-80
2023/03/09 09:44:40;;;;;;;4.90;1.98;;;9.60;68.60;;;;;;5006014;28;115165;-79
2023/03/09 09:47:13;;;;;;;3.97;2.00;;;9.50;68.70;;;;;;5005835;28;116168;-80
2023/03/09 09:49:49;;;;;;;4.32;2.33;;;9.50;68.90;;;;;;5006550;28;114512;-80
2023/03/09 09:52:51;;;;;;;5.18;1.92;;;9.50;68.80;;;;;;4974381;28;114579;-80
2023/03/09 09:55:37;;;;;;;4.45;1.92;;;9.50;68.70;;;;;;4989252;28;116356;-80
2023/03/09 09:58:33;;;;;;;4.53;2.13;;;9.50;69.00;;;;;;4989198;28;114696;-79
2023/03/09 10:01:05;;;;;;;3.63;2.05;;;9.50;69.10;;;;;;5023961;28;114537;-79
2023/03/09 10:03:37;;;;;;;5.13;2.40;;;9.40;69.30;;;;;;4973993;28;114475;-80
2023/03/09 10:06:23;;;;;;;3.38;1.80;;;9.50;69.20;;;;;;4989570;28;115148;-80
2023/03/09 10:08:59;;;;;;;2.95;1.58;;;9.50;68.90;;;;;;4949083;28;116398;-79
2023/03/09 10:11:28;;;;;;;4.07;1.73;;;9.40;68.80;;;;;;5005998;28;114478;-79
2023/03/09 10:14:03;;;;;;;4.07;1.85;;;9.40;68.90;;;;;;4989489;28;115514;-78
2023/03/09 10:16:38;;;;;;;6.50;1.80;;;9.40;68.90;;;;;;5006428;28;115277;-79
2023/03/09 10:19:15;;;;;;;6.68;2.20;;;9.30;69.10;;;;;;4957329;28;114748;-79
2023/03/09 10:21:57;;;;;;;11.77;2.60;;;9.30;69.60;;;;;;5005876;28;116249;-80
2023/03/09 10:24:34;;;;;;;4.95;1.90;;;9.30;69.90;;;;;;4990183;28;114500;-80
2023/03/09 10:27:34;;;;;;;4.53;2.15;;;9.20;70.20;;;;;;4989503;28;115593;-80
2023/03/09 10:30:27;;;;;;;4.18;2.40;;;9.20;70.50;;;;;;4966288;28;115198;-80
2023/03/09 10:32:57;;;;;;;4.28;2.50;;;9.20;71.00;;;;;;5004920;28;114668;-80
2023/03/09 10:35:36;;;;;;;4.68;2.40;;;9.00;71.00;;;;;;4973154;28;114661;-80
2023/03/09 10:38:03;;;;;;;5.40;2.63;;;9.10;71.40;;;;;;5005551;28;116043;-80
2023/03/09 10:40:42;;;;;;;6.22;2.67;;;9.00;71.40;;;;;;5004971;28;115228;-80
2023/03/09 10:43:32;;;;;;;4.35;2.75;;;9.00;71.70;;;;;;4972720;28;114838;-81
2023/03/09 10:46:16;;;;;;;5.85;2.80;;;9.00;71.70;;;;;;5005397;28;117522;-80
2023/03/09 10:48:44;;;;;;;4.22;2.50;;;9.00;72.00;;;;;;5000760;28;115889;-80
2023/03/09 10:51:40;;;;;;;5.65;2.60;;;8.90;72.00;;;;;;5003672;28;115841;-80
2023/03/09 10:54:38;;;;;;;5.10;2.53;;;8.90;72.20;;;;;;4969439;28;114859;-80
2023/03/09 10:57:22;;;;;;;4.82;2.83;;;8.80;72.60;;;;;;4989962;28;114579;-79
2023/03/09 11:00:16;;;;;;;5.90;2.55;;;8.70;73.00;;;;;;5003375;28;114802;-80
2023/03/09 11:02:52;;;;;;;6.60;2.42;;;8.70;72.80;;;;;;5000424;28;114839;-79
2023/03/09 11:05:33;;;;;;;4.07;1.90;;;8.70;73.30;;;;;;5021957;28;114597;-81
2023/03/09 11:08:02;;;;;;;3.95;2.05;;;8.70;73.20;;;;;;5006753;28;114408;-78
2023/03/09 11:10:34;;;;;;;6.00;2.53;;;8.60;73.00;;;;;;5004492;28;115665;-80
2023/03/09 11:13:01;;;;;;;4.07;2.10;;;8.60;73.20;;;;;;4971800;28;114627;-79
2023/03/09 11:15:30;;;;;;;4.75;2.10;;;8.60;73.20;;;;;;4988299;28;114354;-78
2023/03/09 11:17:59;;;;;;;5.18;1.95;;;8.60;73.20;;;;;;4988151;28;114486;-79
2023/03/09 11:20:38;;;;;;;5.60;2.05;;;8.60;73.00;;;;;;4987726;28;115243;-81
2023/03/09 11:23:30;;;;;;;3.65;1.60;;;8.60;72.80;;;;;;4987030;28;115717;-79
2023/03/09 11:26:41;;;;;;;3.63;1.15;;;8.60;73.00;;;;;;4989428;28;114518;-79
2023/03/09 11:29:54;;;;;;;3.58;1.48;;;8.50;72.70;;;;;;5004760;28;114420;-81
2023/03/09 11:32:21;;;;;;;3.60;1.65;;;8.50;72.50;;;;;;4996846;28;115078;-80
2023/03/09 11:34:49;;;;;;;4.60;1.40;;;8.40;72.70;;;;;;5022525;28;114714;-80
2023/03/09 11:37:23;;;;;;;2.70;1.45;;;8.40;72.80;;;;;;5021007;28;114717;-80
2023/03/09 11:40:13;;;;;;;2.92;1.48;;;8.40;72.80;;;;;;5004782;28;114598;-80
2023/03/09 11:43:25;;;;;;;9.70;4.22;;;8.50;73.00;;;;;;5003972;28;115219;-80
2023/03/09 11:45:57;;;;;;;4.70;1.83;;;8.50;72.80;;;;;;4988742;28;114846;-79
2023/03/09 11:48:41;;;;;;;3.45;1.40;;;8.50;72.80;;;;;;4988738;28;114671;-80
2023/03/09 11:51:24;;;;;;;3.53;1.73;;;8.50;72.70;;;;;;4973896;28;114404;-78
2023/03/09 11:54:14;;;;;;;2.05;1.10;;;8.60;72.70;;;;;;4988600;28;115807;-81
2023/03/09 11:56:43;;;;;;;3.38;1.50;;;8.70;72.50;;;;;;5006782;28;114821;-77
2023/03/09 11:59:55;;;;;;;3.65;1.63;;;8.80;72.50;;;;;;4988298;28;114518;-79
2023/03/09 12:02:49;;;;;;;3.30;1.40;;;9.00;71.90;;;;;;5004735;28;114741;-79
2023/03/09 12:05:17;;;;;;;3.30;1.50;;;9.00;71.60;;;;;;5020759;28;116110;-78
2023/03/09 12:07:59;;;;;;;4.72;1.92;;;9.10;71.30;;;;;;4986658;28;114684;-78
2023/03/09 12:10:33;;;;;;;3.58;1.60;;;9.20;71.30;;;;;;4987750;28;114422;-78
2023/03/09 12:13:11;;;;;;;2.58;1.38;;;9.20;71.20;;;;;;4972441;28;114519;-78
2023/03/09 12:15:47;;;;;;;3.83;2.33;;;9.20;71.00;;;;;;5021409;28;115230;-78
2023/03/09 12:18:25;;;;;;;2.60;1.50;;;9.20;70.70;;;;;;5003889;28;115306;-78
2023/03/09 12:20:55;;;;;;;2.40;1.58;;;9.30;70.40;;;;;;5004423;28;114318;-78
2023/03/09 12:23:40;;;;;;;3.47;1.45;;;9.40;70.40;;;;;;4985571;28;114533;-79
2023/03/09 12:26:29;;;;;;;2.95;1.83;;;9.60;70.10;;;;;;5003524;28;115171;-80
2023/03/09 12:29:04;;;;;;;3.83;2.38;;;9.70;69.70;;;;;;5002878;28;116036;-80
2023/03/09 12:31:35;;;;;;;3.13;2.10;;;9.80;69.00;;;;;;5021946;28;114448;-80
2023/03/09 12:34:24;;;;;;;2.63;1.73;;;9.90;68.60;;;;;;4971835;28;115014;-80
2023/03/09 12:36:56;;;;;;;4.50;2.00;;;10.00;67.70;;;;;;5002326;28;116405;-79
2023/03/09 12:39:26;;;;;;;3.05;1.80;;;10.00;67.30;;;;;;4970568;28;114707;-79
2023/03/09 12:42:06;;;;;;;3.80;2.35;;;10.00;67.00;;;;;;5004195;28;114315;-79
2023/03/09 12:44:47;;;;;;;5.28;1.80;;;10.10;66.60;;;;;;5021863;28;114713;-80
2023/03/09 12:48:06;;;;;;;5.43;1.70;;;10.20;66.50;;;;;;5002773;28;116623;-80
2023/03/09 12:50:42;;;;;;;5.32;1.70;;;10.20;66.20;;;;;;5018311;28;114800;-80
2023/03/09 12:53:16;;;;;;;5.95;1.63;;;10.30;64.90;;;;;;5021649;28;114382;-80
2023/03/09 12:56:14;;;;;;;3.25;1.42;;;10.30;64.10;;;;;;4988742;28;114724;-80
2023/03/09 12:58:42;;;;;;;3.28;1.45;;;10.50;63.90;;;;;;5024310;28;115163;-80
2023/03/09 13:01:16;;;;;;;4.13;1.70;;;10.50;63.40;;;;;;5006088;28;115794;-80
2023/03/09 13:03:54;;;;;;;2.88;1.50;;;10.60;62.30;;;;;;5006935;28;114429;-79
2023/03/09 13:06:43;;;;;;;2.38;1.40;;;10.70;62.50;;;;;;4991729;28;114431;-79
2023/03/09 13:09:13;;;;;;;3.55;1.30;;;10.80;61.70;;;;;;5005464;28;115131;-80